sensor_id;sensor_type;location;lat;lon;timestamp;P1;durP1;ratioP1;P2;durP2;ratioP2
9364;SDS011;4722;49.340;9.800;2023-04-24T00:01:47;0.32;;;0.20;;
9364;SDS011;4722;49.340;9.800;2023-04-24T00:04:13;0.35;;;0.28;;
9364;SDS011;4722;49.340;9.800;2023-04-24T00:06:41;0.55;;;0.25;;
9364;SDS011;4722;49.340;9.800;2023-04-24T00:09:08;1.02;;;0.50;;
9364;SDS011;4722;49.340;9.800;2023-04-24T00:11:35;0.65;;;0.28;;
9364;SDS011;4722;49.340;9.800;2023-04-24T00:14:01;1.30;;;0.28;;
9364;SDS011;4722;49.340;9.800;2023-04-24T00:16:27;0.57;;;0.28;;
9364;SDS011;4722;49.340;9.800;2023-04-24T00:18:53;0.98;;;0.38;;
9364;SDS011;4722;49.340;9.800;2023-04-24T00:21:19;2.72;;;0.30;;
9364;SDS011;4722;49.340;9.800;2023-04-24T00:23:46;2.50;;;0.30;;
9364;SDS011;4722;49.340;9.800;2023-04-24T00:26:12;0.77;;;0.30;;
9364;SDS011;4722;49.340;9.800;2023-04-24T00:28:38;0.47;;;0.20;;
9364;SDS011;4722;49.340;9.800;2023-04-24T00:31:04;5.57;;;0.30;;
9364;SDS011;4722;49.340;9.800;2023-04-24T00:33:30;3.42;;;0.22;;
9364;SDS011;4722;49.340;9.800;2023-04-24T00:35:56;1.15;;;0.30;;
9364;SDS011;4722;49.340;9.800;2023-04-24T00:38:21;0.82;;;0.30;;
9364;SDS011;4722;49.340;9.800;2023-04-24T00:40:48;0.20;;;0.10;;
9364;SDS011;4722;49.340;9.800;2023-04-24T00:43:15;1.85;;;0.28;;
9364;SDS011;4722;49.340;9.800;2023-04-24T00:45:41;0.10;;;0.10;;
9364;SDS011;4722;49.340;9.800;2023-04-24T00:48:07;2.70;;;0.28;;
9364;SDS011;4722;49.340;9.800;2023-04-24T00:50:35;0.57;;;0.30;;
9364;SDS011;4722;49.340;9.800;2023-04-24T00:53:01;1.92;;;0.60;;
9364;SDS011;4722;49.340;9.800;2023-04-24T00:55:27;3.67;;;0.90;;
9364;SDS011;4722;49.340;9.800;2023-04-24T00:57:53;2.20;;;0.60;;
9364;SDS011;4722;49.340;9.800;2023-04-24T01:00:19;1.40;;;0.30;;
9364;SDS011;4722;49.340;9.800;2023-04-24T01:02:45;0.50;;;0.20;;
9364;SDS011;4722;49.340;9.800;2023-04-24T01:05:12;0.43;;;0.10;;
9364;SDS011;4722;49.340;9.800;2023-04-24T01:07:39;0.10;;;0.10;;
9364;SDS011;4722;49.340;9.800;2023-04-24T01:10:09;0.20;;;0.10;;
9364;SDS011;4722;49.340;9.800;2023-04-24T01:12:35;0.73;;;0.20;;
9364;SDS011;4722;49.340;9.800;2023-04-24T01:15:01;1.65;;;0.30;;
9364;SDS011;4722;49.340;9.800;2023-04-24T01:17:27;1.55;;;0.35;;
9364;SDS011;4722;49.340;9.800;2023-04-24T01:19:53;0.30;;;0.20;;
9364;SDS011;4722;49.340;9.800;2023-04-24T01:22:21;0.30;;;0.30;;
9364;SDS011;4722;49.340;9.800;2023-04-24T01:24:47;0.50;;;0.10;;
9364;SDS011;4722;49.340;9.800;2023-04-24T01:27:13;0.43;;;0.20;;
9364;SDS011;4722;49.340;9.800;2023-04-24T01:29:40;0.47;;;0.20;;
9364;SDS011;4722;49.340;9.800;2023-04-24T01:32:06;1.42;;;0.40;;
9364;SDS011;4722;49.340;9.800;2023-04-24T01:34:32;0.85;;;0.20;;
9364;SDS011;4722;49.340;9.800;2023-04-24T01:36:58;0.70;;;0.30;;
9364;SDS011;4722;49.340;9.800;2023-04-24T01:39:24;11.40;;;0.40;;
9364;SDS011;4722;49.340;9.800;2023-04-24T01:41:51;0.98;;;0.40;;
9364;SDS011;4722;49.340;9.800;2023-04-24T01:44:17;1.48;;;0.17;;
9364;SDS011;4722;49.340;9.800;2023-04-24T01:46:43;0.43;;;0.20;;
9364;SDS011;4722;49.340;9.800;2023-04-24T01:49:10;0.38;;;0.20;;
9364;SDS011;4722;49.340;9.800;2023-04-24T01:51:36;2.42;;;0.38;;
9364;SDS011;4722;49.340;9.800;2023-04-24T01:54:02;0.68;;;0.22;;
9364;SDS011;4722;49.340;9.800;2023-04-24T01:56:29;0.57;;;0.20;;
9364;SDS011;4722;49.340;9.800;2023-04-24T01:58:55;1.67;;;0.52;;
9364;SDS011;4722;49.340;9.800;2023-04-24T02:01:23;1.85;;;0.25;;
9364;SDS011;4722;49.340;9.800;2023-04-24T02:03:50;0.40;;;0.15;;
9364;SDS011;4722;49.340;9.800;2023-04-24T02:06:15;0.63;;;0.40;;
9364;SDS011;4722;49.340;9.800;2023-04-24T02:08:41;1.00;;;0.20;;
9364;SDS011;4722;49.340;9.800;2023-04-24T02:11:10;0.20;;;0.10;;
9364;SDS011;4722;49.340;9.800;2023-04-24T02:13:36;0.30;;;0.15;;
9364;SDS011;4722;49.340;9.800;2023-04-24T02:16:02;2.20;;;0.45;;
9364;SDS011;4722;49.340;9.800;2023-04-24T02:18:28;0.55;;;0.30;;
9364;SDS011;4722;49.340;9.800;2023-04-24T02:20:54;0.60;;;0.20;;
9364;SDS011;4722;49.340;9.800;2023-04-24T02:23:20;2.05;;;0.52;;
9364;SDS011;4722;49.340;9.800;2023-04-24T02:25:46;1.02;;;0.50;;
9364;SDS011;4722;49.340;9.800;2023-04-24T02:28:12;0.50;;;0.22;;
9364;SDS011;4722;49.340;9.800;2023-04-24T02:30:38;0.13;;;0.13;;
9364;SDS011;4722;49.340;9.800;2023-04-24T02:33:04;0.50;;;0.25;;
9364;SDS011;4722;49.340;9.800;2023-04-24T02:35:30;0.55;;;0.25;;
9364;SDS011;4722;49.340;9.800;2023-04-24T02:37:56;0.65;;;0.52;;
9364;SDS011;4722;49.340;9.800;2023-04-24T02:40:22;1.25;;;0.25;;
9364;SDS011;4722;49.340;9.800;2023-04-24T02:42:48;1.52;;;0.50;;
9364;SDS011;4722;49.340;9.800;2023-04-24T02:45:14;1.10;;;0.32;;
9364;SDS011;4722;49.340;9.800;2023-04-24T02:47:40;3.05;;;0.38;;
9364;SDS011;4722;49.340;9.800;2023-04-24T02:50:07;1.10;;;0.20;;
9364;SDS011;4722;49.340;9.800;2023-04-24T02:52:33;1.25;;;0.20;;
9364;SDS011;4722;49.340;9.800;2023-04-24T02:54:59;0.98;;;0.25;;
9364;SDS011;4722;49.340;9.800;2023-04-24T02:57:25;0.90;;;0.32;;
9364;SDS011;4722;49.340;9.800;2023-04-24T02:59:51;0.20;;;0.17;;
9364;SDS011;4722;49.340;9.800;2023-04-24T03:02:17;0.52;;;0.13;;
9364;SDS011;4722;49.340;9.800;2023-04-24T03:04:43;1.98;;;0.30;;
9364;SDS011;4722;49.340;9.800;2023-04-24T03:07:09;0.63;;;0.22;;
9364;SDS011;4722;49.340;9.800;2023-04-24T03:09:35;0.35;;;0.35;;
9364;SDS011;4722;49.340;9.800;2023-04-24T03:12:00;0.80;;;0.30;;
9364;SDS011;4722;49.340;9.800;2023-04-24T03:14:26;0.70;;;0.20;;
9364;SDS011;4722;49.340;9.800;2023-04-24T03:16:56;0.65;;;0.28;;
9364;SDS011;4722;49.340;9.800;2023-04-24T03:19:22;0.30;;;0.25;;
9364;SDS011;4722;49.340;9.800;2023-04-24T03:21:48;0.32;;;0.20;;
9364;SDS011;4722;49.340;9.800;2023-04-24T03:24:14;3.15;;;0.20;;
9364;SDS011;4722;49.340;9.800;2023-04-24T03:26:40;0.98;;;0.40;;
9364;SDS011;4722;49.340;9.800;2023-04-24T03:29:06;1.42;;;0.32;;
9364;SDS011;4722;49.340;9.800;2023-04-24T03:31:32;0.43;;;0.20;;
9364;SDS011;4722;49.340;9.800;2023-04-24T03:33:58;0.32;;;0.20;;
9364;SDS011;4722;49.340;9.800;2023-04-24T03:36:23;0.65;;;0.28;;
9364;SDS011;4722;49.340;9.800;2023-04-24T03:38:51;0.43;;;0.20;;
9364;SDS011;4722;49.340;9.800;2023-04-24T03:41:17;1.75;;;0.60;;
9364;SDS011;4722;49.340;9.800;2023-04-24T03:43:43;0.60;;;0.30;;
9364;SDS011;4722;49.340;9.800;2023-04-24T03:46:09;0.80;;;0.30;;
9364;SDS011;4722;49.340;9.800;2023-04-24T03:48:35;1.88;;;0.43;;
9364;SDS011;4722;49.340;9.800;2023-04-24T03:51:01;4.85;;;0.65;;
9364;SDS011;4722;49.340;9.800;2023-04-24T03:53:27;0.68;;;0.30;;
9364;SDS011;4722;49.340;9.800;2023-04-24T03:55:53;1.20;;;0.30;;
9364;SDS011;4722;49.340;9.800;2023-04-24T03:58:19;1.27;;;0.40;;
9364;SDS011;4722;49.340;9.800;2023-04-24T04:00:45;1.05;;;0.30;;
9364;SDS011;4722;49.340;9.800;2023-04-24T04:03:13;0.90;;;0.45;;
9364;SDS011;4722;49.340;9.800;2023-04-24T04:05:39;3.58;;;1.02;;
9364;SDS011;4722;49.340;9.800;2023-04-24T04:08:05;0.30;;;0.13;;
9364;SDS011;4722;49.340;9.800;2023-04-24T04:10:31;0.65;;;0.30;;
9364;SDS011;4722;49.340;9.800;2023-04-24T04:12:57;0.40;;;0.40;;
9364;SDS011;4722;49.340;9.800;2023-04-24T04:15:23;0.43;;;0.22;;
9364;SDS011;4722;49.340;9.800;2023-04-24T04:17:49;0.40;;;0.20;;
9364;SDS011;4722;49.340;9.800;2023-04-24T04:20:15;4.75;;;0.55;;
9364;SDS011;4722;49.340;9.800;2023-04-24T04:22:41;1.20;;;0.32;;
9364;SDS011;4722;49.340;9.800;2023-04-24T04:25:07;0.25;;;0.20;;
9364;SDS011;4722;49.340;9.800;2023-04-24T04:27:33;0.63;;;0.20;;
9364;SDS011;4722;49.340;9.800;2023-04-24T04:30:03;2.95;;;0.32;;
9364;SDS011;4722;49.340;9.800;2023-04-24T04:34:59;0.50;;;0.20;;
9364;SDS011;4722;49.340;9.800;2023-04-24T04:37:29;1.13;;;0.40;;
9364;SDS011;4722;49.340;9.800;2023-04-24T04:39:56;1.15;;;0.40;;
9364;SDS011;4722;49.340;9.800;2023-04-24T04:42:23;1.27;;;0.32;;
9364;SDS011;4722;49.340;9.800;2023-04-24T04:44:49;1.27;;;0.60;;
9364;SDS011;4722;49.340;9.800;2023-04-24T04:47:15;1.55;;;0.63;;
9364;SDS011;4722;49.340;9.800;2023-04-24T04:49:42;1.23;;;0.47;;
9364;SDS011;4722;49.340;9.800;2023-04-24T04:52:08;0.85;;;0.40;;
9364;SDS011;4722;49.340;9.800;2023-04-24T04:54:34;1.65;;;0.43;;
9364;SDS011;4722;49.340;9.800;2023-04-24T04:57:00;1.20;;;0.47;;
9364;SDS011;4722;49.340;9.800;2023-04-24T04:59:26;1.27;;;0.50;;
9364;SDS011;4722;49.340;9.800;2023-04-24T05:01:52;0.93;;;0.40;;
9364;SDS011;4722;49.340;9.800;2023-04-24T05:04:18;1.08;;;0.38;;
9364;SDS011;4722;49.340;9.800;2023-04-24T05:06:44;1.67;;;0.38;;
9364;SDS011;4722;49.340;9.800;2023-04-24T05:09:12;0.25;;;0.20;;
9364;SDS011;4722;49.340;9.800;2023-04-24T05:11:38;0.43;;;0.30;;
9364;SDS011;4722;49.340;9.800;2023-04-24T05:14:04;0.73;;;0.25;;
9364;SDS011;4722;49.340;9.800;2023-04-24T05:16:29;4.28;;;0.20;;
9364;SDS011;4722;49.340;9.800;2023-04-24T05:18:55;0.63;;;0.30;;
9364;SDS011;4722;49.340;9.800;2023-04-24T05:21:21;0.40;;;0.20;;
9364;SDS011;4722;49.340;9.800;2023-04-24T05:23:47;0.70;;;0.20;;
9364;SDS011;4722;49.340;9.800;2023-04-24T05:26:13;0.57;;;0.30;;
9364;SDS011;4722;49.340;9.800;2023-04-24T05:28:40;0.47;;;0.30;;
9364;SDS011;4722;49.340;9.800;2023-04-24T05:31:06;0.55;;;0.20;;
9364;SDS011;4722;49.340;9.800;2023-04-24T05:33:32;2.05;;;0.63;;
9364;SDS011;4722;49.340;9.800;2023-04-24T05:35:58;0.10;;;0.10;;
9364;SDS011;4722;49.340;9.800;2023-04-24T05:38:24;0.20;;;0.20;;
9364;SDS011;4722;49.340;9.800;2023-04-24T05:40:50;0.40;;;0.20;;
9364;SDS011;4722;49.340;9.800;2023-04-24T05:43:16;1.35;;;0.55;;
9364;SDS011;4722;49.340;9.800;2023-04-24T05:45:42;0.95;;;0.10;;
9364;SDS011;4722;49.340;9.800;2023-04-24T05:48:08;0.45;;;0.28;;
9364;SDS011;4722;49.340;9.800;2023-04-24T05:50:33;2.15;;;0.47;;
9364;SDS011;4722;49.340;9.800;2023-04-24T05:52:59;1.05;;;0.55;;
9364;SDS011;4722;49.340;9.800;2023-04-24T05:55:27;1.63;;;0.88;;
9364;SDS011;4722;49.340;9.800;2023-04-24T05:57:53;1.33;;;0.32;;
9364;SDS011;4722;49.340;9.800;2023-04-24T06:00:19;0.88;;;0.40;;
9364;SDS011;4722;49.340;9.800;2023-04-24T06:02:44;2.25;;;0.55;;
9364;SDS011;4722;49.340;9.800;2023-04-24T06:05:11;0.98;;;0.63;;
9364;SDS011;4722;49.340;9.800;2023-04-24T06:07:37;5.53;;;1.50;;
9364;SDS011;4722;49.340;9.800;2023-04-24T06:10:02;7.78;;;1.52;;
9364;SDS011;4722;49.340;9.800;2023-04-24T06:12:28;1.27;;;0.63;;
9364;SDS011;4722;49.340;9.800;2023-04-24T06:14:55;9.88;;;2.97;;
9364;SDS011;4722;49.340;9.800;2023-04-24T06:17:21;4.97;;;1.73;;
9364;SDS011;4722;49.340;9.800;2023-04-24T06:19:47;3.08;;;1.42;;
9364;SDS011;4722;49.340;9.800;2023-04-24T06:22:13;6.22;;;1.73;;
9364;SDS011;4722;49.340;9.800;2023-04-24T06:24:39;31.75;;;6.63;;
9364;SDS011;4722;49.340;9.800;2023-04-24T06:27:06;16.90;;;4.60;;
9364;SDS011;4722;49.340;9.800;2023-04-24T06:29:32;9.43;;;2.00;;
9364;SDS011;4722;49.340;9.800;2023-04-24T06:31:59;4.53;;;1.58;;
9364;SDS011;4722;49.340;9.800;2023-04-24T06:34:24;15.95;;;5.88;;
9364;SDS011;4722;49.340;9.800;2023-04-24T06:36:50;4.22;;;1.73;;
9364;SDS011;4722;49.340;9.800;2023-04-24T06:39:17;2.13;;;1.17;;
9364;SDS011;4722;49.340;9.800;2023-04-24T06:41:43;2.67;;;0.80;;
9364;SDS011;4722;49.340;9.800;2023-04-24T06:44:08;4.80;;;1.10;;
9364;SDS011;4722;49.340;9.800;2023-04-24T06:46:34;1.90;;;1.10;;
9364;SDS011;4722;49.340;9.800;2023-04-24T06:49:00;1.80;;;1.00;;
9364;SDS011;4722;49.340;9.800;2023-04-24T06:51:26;2.67;;;1.63;;
9364;SDS011;4722;49.340;9.800;2023-04-24T06:53:53;2.53;;;1.10;;
9364;SDS011;4722;49.340;9.800;2023-04-24T06:56:20;3.58;;;1.25;;
9364;SDS011;4722;49.340;9.800;2023-04-24T06:58:47;2.97;;;1.20;;
9364;SDS011;4722;49.340;9.800;2023-04-24T07:01:12;3.10;;;1.70;;
9364;SDS011;4722;49.340;9.800;2023-04-24T07:03:38;2.35;;;1.42;;
9364;SDS011;4722;49.340;9.800;2023-04-24T07:06:05;2.28;;;1.15;;
9364;SDS011;4722;49.340;9.800;2023-04-24T07:08:31;1.75;;;1.02;;
9364;SDS011;4722;49.340;9.800;2023-04-24T07:10:58;3.17;;;1.10;;
9364;SDS011;4722;49.340;9.800;2023-04-24T07:13:24;2.78;;;1.38;;
9364;SDS011;4722;49.340;9.800;2023-04-24T07:15:50;2.38;;;1.23;;
9364;SDS011;4722;49.340;9.800;2023-04-24T07:18:17;2.28;;;1.38;;
9364;SDS011;4722;49.340;9.800;2023-04-24T07:20:43;2.05;;;1.00;;
9364;SDS011;4722;49.340;9.800;2023-04-24T07:23:09;4.93;;;1.52;;
9364;SDS011;4722;49.340;9.800;2023-04-24T07:25:36;4.07;;;1.35;;
9364;SDS011;4722;49.340;9.800;2023-04-24T07:28:03;2.78;;;1.20;;
9364;SDS011;4722;49.340;9.800;2023-04-24T07:30:29;6.20;;;2.15;;
9364;SDS011;4722;49.340;9.800;2023-04-24T07:32:57;4.75;;;1.42;;
9364;SDS011;4722;49.340;9.800;2023-04-24T07:35:23;5.60;;;1.27;;
9364;SDS011;4722;49.340;9.800;2023-04-24T07:37:50;3.75;;;1.55;;
9364;SDS011;4722;49.340;9.800;2023-04-24T07:40:17;1.08;;;0.73;;
9364;SDS011;4722;49.340;9.800;2023-04-24T07:42:43;1.38;;;1.00;;
9364;SDS011;4722;49.340;9.800;2023-04-24T07:45:09;3.58;;;1.25;;
9364;SDS011;4722;49.340;9.800;2023-04-24T07:47:35;2.28;;;1.45;;
9364;SDS011;4722;49.340;9.800;2023-04-24T07:50:02;3.20;;;1.48;;
9364;SDS011;4722;49.340;9.800;2023-04-24T07:52:28;3.22;;;1.30;;
9364;SDS011;4722;49.340;9.800;2023-04-24T07:54:54;3.33;;;1.30;;
9364;SDS011;4722;49.340;9.800;2023-04-24T07:57:24;1.92;;;1.10;;
9364;SDS011;4722;49.340;9.800;2023-04-24T07:59:50;1.40;;;0.82;;
9364;SDS011;4722;49.340;9.800;2023-04-24T08:02:16;1.83;;;0.98;;
9364;SDS011;4722;49.340;9.800;2023-04-24T08:04:42;3.30;;;1.20;;
9364;SDS011;4722;49.340;9.800;2023-04-24T08:07:08;2.03;;;1.00;;
9364;SDS011;4722;49.340;9.800;2023-04-24T08:09:34;1.65;;;0.60;;
9364;SDS011;4722;49.340;9.800;2023-04-24T08:12:00;2.58;;;0.93;;
9364;SDS011;4722;49.340;9.800;2023-04-24T08:14:27;1.48;;;0.95;;
9364;SDS011;4722;49.340;9.800;2023-04-24T08:16:55;2.65;;;1.00;;
9364;SDS011;4722;49.340;9.800;2023-04-24T08:19:21;1.75;;;0.90;;
9364;SDS011;4722;49.340;9.800;2023-04-24T08:21:47;1.65;;;0.90;;
9364;SDS011;4722;49.340;9.800;2023-04-24T08:24:13;4.32;;;0.85;;
9364;SDS011;4722;49.340;9.800;2023-04-24T08:26:39;2.13;;;0.80;;
9364;SDS011;4722;49.340;9.800;2023-04-24T08:29:06;3.10;;;0.70;;
9364;SDS011;4722;49.340;9.800;2023-04-24T08:31:32;2.58;;;1.13;;
9364;SDS011;4722;49.340;9.800;2023-04-24T08:33:58;1.25;;;0.75;;
9364;SDS011;4722;49.340;9.800;2023-04-24T08:36:25;1.10;;;0.57;;
9364;SDS011;4722;49.340;9.800;2023-04-24T08:38:51;1.27;;;0.50;;
9364;SDS011;4722;49.340;9.800;2023-04-24T08:41:17;2.38;;;0.82;;
9364;SDS011;4722;49.340;9.800;2023-04-24T08:43:45;1.85;;;0.50;;
9364;SDS011;4722;49.340;9.800;2023-04-24T08:46:11;3.20;;;0.77;;
9364;SDS011;4722;49.340;9.800;2023-04-24T08:48:38;0.85;;;0.50;;
9364;SDS011;4722;49.340;9.800;2023-04-24T08:51:06;8.48;;;0.40;;
9364;SDS011;4722;49.340;9.800;2023-04-24T08:53:33;0.35;;;0.17;;
9364;SDS011;4722;49.340;9.800;2023-04-24T08:55:59;0.90;;;0.30;;
9364;SDS011;4722;49.340;9.800;2023-04-24T08:58:26;0.10;;;0.10;;
9364;SDS011;4722;49.340;9.800;2023-04-24T09:00:55;0.73;;;0.38;;
9364;SDS011;4722;49.340;9.800;2023-04-24T09:03:21;0.35;;;0.30;;
9364;SDS011;4722;49.340;9.800;2023-04-24T09:05:48;1.00;;;0.40;;
9364;SDS011;4722;49.340;9.800;2023-04-24T09:08:16;0.80;;;0.50;;
9364;SDS011;4722;49.340;9.800;2023-04-24T09:10:43;0.70;;;0.28;;
9364;SDS011;4722;49.340;9.800;2023-04-24T09:13:09;1.27;;;0.60;;
9364;SDS011;4722;49.340;9.800;2023-04-24T09:15:35;2.30;;;0.73;;
9364;SDS011;4722;49.340;9.800;2023-04-24T09:18:01;0.98;;;0.52;;
9364;SDS011;4722;49.340;9.800;2023-04-24T09:20:27;4.88;;;0.70;;
9364;SDS011;4722;49.340;9.800;2023-04-24T09:22:54;2.03;;;0.38;;
9364;SDS011;4722;49.340;9.800;2023-04-24T09:25:20;3.25;;;0.40;;
9364;SDS011;4722;49.340;9.800;2023-04-24T09:27:46;0.98;;;0.32;;
9364;SDS011;4722;49.340;9.800;2023-04-24T09:30:13;0.77;;;0.47;;
9364;SDS011;4722;49.340;9.800;2023-04-24T09:32:39;2.22;;;0.35;;
9364;SDS011;4722;49.340;9.800;2023-04-24T09:37:44;0.60;;;0.40;;
9364;SDS011;4722;49.340;9.800;2023-04-24T09:42:39;1.33;;;0.60;;
9364;SDS011;4722;49.340;9.800;2023-04-24T09:45:09;5.82;;;0.70;;
9364;SDS011;4722;49.340;9.800;2023-04-24T09:47:38;0.95;;;0.50;;
9364;SDS011;4722;49.340;9.800;2023-04-24T09:52:44;2.70;;;0.52;;
9364;SDS011;4722;49.340;9.800;2023-04-24T09:55:18;1.02;;;0.65;;
9364;SDS011;4722;49.340;9.800;2023-04-24T09:57:48;0.60;;;0.20;;
9364;SDS011;4722;49.340;9.800;2023-04-24T10:00:18;1.75;;;0.57;;
9364;SDS011;4722;49.340;9.800;2023-04-24T10:02:45;1.48;;;0.70;;
9364;SDS011;4722;49.340;9.800;2023-04-24T10:05:15;0.95;;;0.60;;
9364;SDS011;4722;49.340;9.800;2023-04-24T10:07:41;1.08;;;0.50;;
9364;SDS011;4722;49.340;9.800;2023-04-24T10:10:08;1.58;;;0.60;;
9364;SDS011;4722;49.340;9.800;2023-04-24T10:12:35;0.70;;;0.35;;
9364;SDS011;4722;49.340;9.800;2023-04-24T10:15:02;0.85;;;0.85;;
9364;SDS011;4722;49.340;9.800;2023-04-24T10:17:28;0.77;;;0.50;;
9364;SDS011;4722;49.340;9.800;2023-04-24T10:19:54;0.55;;;0.25;;
9364;SDS011;4722;49.340;9.800;2023-04-24T10:22:20;3.40;;;0.40;;
9364;SDS011;4722;49.340;9.800;2023-04-24T10:24:47;1.23;;;0.40;;
9364;SDS011;4722;49.340;9.800;2023-04-24T10:27:13;0.70;;;0.68;;
9364;SDS011;4722;49.340;9.800;2023-04-24T10:29:40;3.47;;;0.50;;
9364;SDS011;4722;49.340;9.800;2023-04-24T10:32:08;0.52;;;0.35;;
9364;SDS011;4722;49.340;9.800;2023-04-24T10:34:34;0.60;;;0.45;;
9364;SDS011;4722;49.340;9.800;2023-04-24T10:37:01;1.20;;;0.70;;
9364;SDS011;4722;49.340;9.800;2023-04-24T10:39:28;2.45;;;1.13;;
9364;SDS011;4722;49.340;9.800;2023-04-24T10:41:55;1.42;;;0.60;;
9364;SDS011;4722;49.340;9.800;2023-04-24T10:44:22;1.50;;;0.73;;
9364;SDS011;4722;49.340;9.800;2023-04-24T10:46:52;1.52;;;0.50;;
9364;SDS011;4722;49.340;9.800;2023-04-24T10:49:27;2.55;;;0.60;;
9364;SDS011;4722;49.340;9.800;2023-04-24T10:51:53;2.78;;;1.10;;
9364;SDS011;4722;49.340;9.800;2023-04-24T10:54:25;2.47;;;0.57;;
9364;SDS011;4722;49.340;9.800;2023-04-24T10:56:52;1.40;;;0.57;;
9364;SDS011;4722;49.340;9.800;2023-04-24T10:59:25;1.85;;;0.73;;
9364;SDS011;4722;49.340;9.800;2023-04-24T11:01:54;1.92;;;0.57;;
9364;SDS011;4722;49.340;9.800;2023-04-24T11:04:30;1.65;;;0.73;;
9364;SDS011;4722;49.340;9.800;2023-04-24T11:06:56;2.08;;;0.77;;
9364;SDS011;4722;49.340;9.800;2023-04-24T11:09:22;1.40;;;0.50;;
9364;SDS011;4722;49.340;9.800;2023-04-24T11:11:51;4.00;;;1.20;;
9364;SDS011;4722;49.340;9.800;2023-04-24T11:14:28;2.85;;;1.02;;
9364;SDS011;4722;49.340;9.800;2023-04-24T11:16:54;2.47;;;1.20;;
9364;SDS011;4722;49.340;9.800;2023-04-24T11:19:21;1.40;;;0.93;;
9364;SDS011;4722;49.340;9.800;2023-04-24T11:22:02;3.65;;;1.00;;
9364;SDS011;4722;49.340;9.800;2023-04-24T11:32:14;4.00;;;0.68;;
9364;SDS011;4722;49.340;9.800;2023-04-24T11:34:44;2.58;;;0.82;;
9364;SDS011;4722;49.340;9.800;2023-04-24T11:37:10;1.25;;;0.65;;
9364;SDS011;4722;49.340;9.800;2023-04-24T11:39:36;1.20;;;0.63;;
9364;SDS011;4722;49.340;9.800;2023-04-24T11:42:02;1.95;;;0.63;;
9364;SDS011;4722;49.340;9.800;2023-04-24T11:44:30;1.27;;;0.60;;
9364;SDS011;4722;49.340;9.800;2023-04-24T11:46:57;2.13;;;0.98;;
9364;SDS011;4722;49.340;9.800;2023-04-24T11:49:23;3.05;;;1.10;;
9364;SDS011;4722;49.340;9.800;2023-04-24T11:51:49;2.55;;;1.02;;
9364;SDS011;4722;49.340;9.800;2023-04-24T11:54:14;2.30;;;0.95;;
9364;SDS011;4722;49.340;9.800;2023-04-24T11:56:44;1.38;;;1.02;;
9364;SDS011;4722;49.340;9.800;2023-04-24T11:59:10;1.38;;;0.80;;
9364;SDS011;4722;49.340;9.800;2023-04-24T12:01:45;2.85;;;1.05;;
9364;SDS011;4722;49.340;9.800;2023-04-24T12:04:12;3.40;;;1.23;;
9364;SDS011;4722;49.340;9.800;2023-04-24T12:06:38;6.53;;;1.70;;
9364;SDS011;4722;49.340;9.800;2023-04-24T12:09:04;2.10;;;1.00;;
9364;SDS011;4722;49.340;9.800;2023-04-24T12:11:31;1.67;;;1.00;;
9364;SDS011;4722;49.340;9.800;2023-04-24T12:13:57;2.28;;;1.13;;
9364;SDS011;4722;49.340;9.800;2023-04-24T12:16:26;1.85;;;0.85;;
9364;SDS011;4722;49.340;9.800;2023-04-24T12:18:52;2.40;;;0.82;;
9364;SDS011;4722;49.340;9.800;2023-04-24T12:21:19;1.77;;;0.82;;
9364;SDS011;4722;49.340;9.800;2023-04-24T12:23:46;3.50;;;0.63;;
9364;SDS011;4722;49.340;9.800;2023-04-24T12:26:16;4.60;;;1.52;;
9364;SDS011;4722;49.340;9.800;2023-04-24T12:28:42;2.00;;;1.02;;
9364;SDS011;4722;49.340;9.800;2023-04-24T12:31:08;2.50;;;0.80;;
9364;SDS011;4722;49.340;9.800;2023-04-24T12:33:35;2.00;;;0.77;;
9364;SDS011;4722;49.340;9.800;2023-04-24T12:36:01;2.33;;;1.02;;
9364;SDS011;4722;49.340;9.800;2023-04-24T12:38:28;1.20;;;0.90;;
9364;SDS011;4722;49.340;9.800;2023-04-24T12:41:05;1.90;;;1.23;;
9364;SDS011;4722;49.340;9.800;2023-04-24T12:43:31;2.55;;;1.25;;
9364;SDS011;4722;49.340;9.800;2023-04-24T12:45:58;2.65;;;1.27;;
9364;SDS011;4722;49.340;9.800;2023-04-24T12:48:25;2.42;;;0.95;;
9364;SDS011;4722;49.340;9.800;2023-04-24T12:50:51;2.65;;;1.40;;
9364;SDS011;4722;49.340;9.800;2023-04-24T12:53:17;1.65;;;1.30;;
9364;SDS011;4722;49.340;9.800;2023-04-24T12:55:43;3.45;;;1.45;;
9364;SDS011;4722;49.340;9.800;2023-04-24T12:58:09;2.75;;;1.50;;
9364;SDS011;4722;49.340;9.800;2023-04-24T13:00:36;2.35;;;1.05;;
9364;SDS011;4722;49.340;9.800;2023-04-24T13:03:02;7.15;;;2.13;;
9364;SDS011;4722;49.340;9.800;2023-04-24T13:05:28;4.18;;;2.20;;
9364;SDS011;4722;49.340;9.800;2023-04-24T13:07:54;2.35;;;1.40;;
9364;SDS011;4722;49.340;9.800;2023-04-24T13:10:20;2.17;;;1.30;;
9364;SDS011;4722;49.340;9.800;2023-04-24T13:12:46;2.30;;;0.85;;
9364;SDS011;4722;49.340;9.800;2023-04-24T13:15:12;1.92;;;0.82;;
9364;SDS011;4722;49.340;9.800;2023-04-24T13:17:38;1.58;;;0.75;;
9364;SDS011;4722;49.340;9.800;2023-04-24T13:20:05;2.85;;;1.08;;
9364;SDS011;4722;49.340;9.800;2023-04-24T13:22:31;2.00;;;0.70;;
9364;SDS011;4722;49.340;9.800;2023-04-24T13:24:57;2.15;;;1.00;;
9364;SDS011;4722;49.340;9.800;2023-04-24T13:27:23;2.67;;;1.38;;
9364;SDS011;4722;49.340;9.800;2023-04-24T13:29:49;2.22;;;1.05;;
9364;SDS011;4722;49.340;9.800;2023-04-24T13:32:15;4.05;;;0.80;;
9364;SDS011;4722;49.340;9.800;2023-04-24T13:34:42;2.78;;;1.20;;
9364;SDS011;4722;49.340;9.800;2023-04-24T13:37:08;2.28;;;1.48;;
9364;SDS011;4722;49.340;9.800;2023-04-24T13:39:34;3.47;;;1.50;;
9364;SDS011;4722;49.340;9.800;2023-04-24T13:42:00;2.67;;;1.50;;
9364;SDS011;4722;49.340;9.800;2023-04-24T13:44:26;2.17;;;1.20;;
9364;SDS011;4722;49.340;9.800;2023-04-24T13:46:53;2.85;;;1.30;;
9364;SDS011;4722;49.340;9.800;2023-04-24T13:49:19;5.10;;;1.90;;
9364;SDS011;4722;49.340;9.800;2023-04-24T13:51:46;2.15;;;1.02;;
9364;SDS011;4722;49.340;9.800;2023-04-24T13:54:12;4.60;;;1.80;;
9364;SDS011;4722;49.340;9.800;2023-04-24T13:56:38;4.07;;;1.17;;
9364;SDS011;4722;49.340;9.800;2023-04-24T13:59:07;3.50;;;1.65;;
9364;SDS011;4722;49.340;9.800;2023-04-24T14:01:33;2.22;;;0.93;;
9364;SDS011;4722;49.340;9.800;2023-04-24T14:03:59;4.20;;;1.42;;
9364;SDS011;4722;49.340;9.800;2023-04-24T14:06:25;1.67;;;1.05;;
9364;SDS011;4722;49.340;9.800;2023-04-24T14:08:51;5.75;;;1.48;;
9364;SDS011;4722;49.340;9.800;2023-04-24T14:11:17;2.95;;;1.23;;
9364;SDS011;4722;49.340;9.800;2023-04-24T14:13:44;3.00;;;1.50;;
9364;SDS011;4722;49.340;9.800;2023-04-24T14:16:10;6.95;;;2.30;;
9364;SDS011;4722;49.340;9.800;2023-04-24T14:18:36;4.70;;;1.90;;
9364;SDS011;4722;49.340;9.800;2023-04-24T14:21:03;2.30;;;1.20;;
9364;SDS011;4722;49.340;9.800;2023-04-24T14:23:29;4.70;;;1.45;;
9364;SDS011;4722;49.340;9.800;2023-04-24T14:25:55;1.80;;;1.05;;
9364;SDS011;4722;49.340;9.800;2023-04-24T14:28:21;4.10;;;2.00;;
9364;SDS011;4722;49.340;9.800;2023-04-24T14:30:47;3.28;;;1.17;;
9364;SDS011;4722;49.340;9.800;2023-04-24T14:33:14;2.38;;;1.10;;
9364;SDS011;4722;49.340;9.800;2023-04-24T14:35:40;4.18;;;1.50;;
9364;SDS011;4722;49.340;9.800;2023-04-24T14:38:07;3.55;;;1.23;;
9364;SDS011;4722;49.340;9.800;2023-04-24T14:40:33;2.78;;;1.40;;
9364;SDS011;4722;49.340;9.800;2023-04-24T14:42:59;1.90;;;1.33;;
9364;SDS011;4722;49.340;9.800;2023-04-24T14:45:25;4.30;;;1.23;;
9364;SDS011;4722;49.340;9.800;2023-04-24T14:47:51;4.57;;;1.48;;
9364;SDS011;4722;49.340;9.800;2023-04-24T14:50:18;2.70;;;1.23;;
9364;SDS011;4722;49.340;9.800;2023-04-24T14:52:44;2.17;;;1.05;;
9364;SDS011;4722;49.340;9.800;2023-04-24T14:55:10;3.35;;;1.38;;
9364;SDS011;4722;49.340;9.800;2023-04-24T14:57:36;3.97;;;1.20;;
9364;SDS011;4722;49.340;9.800;2023-04-24T15:00:03;2.88;;;1.55;;
9364;SDS011;4722;49.340;9.800;2023-04-24T15:02:31;3.92;;;1.75;;
9364;SDS011;4722;49.340;9.800;2023-04-24T15:04:57;3.50;;;1.80;;
9364;SDS011;4722;49.340;9.800;2023-04-24T15:07:23;2.95;;;1.42;;
9364;SDS011;4722;49.340;9.800;2023-04-24T15:09:49;4.53;;;1.15;;
9364;SDS011;4722;49.340;9.800;2023-04-24T15:12:15;2.25;;;1.35;;
9364;SDS011;4722;49.340;9.800;2023-04-24T15:14:41;4.53;;;2.45;;
9364;SDS011;4722;49.340;9.800;2023-04-24T15:17:07;3.22;;;1.70;;
9364;SDS011;4722;49.340;9.800;2023-04-24T15:19:33;3.80;;;1.90;;
9364;SDS011;4722;49.340;9.800;2023-04-24T15:21:59;3.65;;;2.00;;
9364;SDS011;4722;49.340;9.800;2023-04-24T15:24:25;3.53;;;2.08;;
9364;SDS011;4722;49.340;9.800;2023-04-24T15:26:51;1.98;;;1.27;;
9364;SDS011;4722;49.340;9.800;2023-04-24T15:29:17;6.57;;;2.97;;